GRF71C EDDP-EBBR
Flight info
| Callsign | GRF71C |
|---|---|
| Flight time | 0h 50m |
| Altitude | 34000 |
| Route | ORTAG5Q/08L ORTAG Q230 KUMER DCT TOLTA DCT ABAMI Z717 NEREL T855 BATTY |
| Aircraft | A321/M-SDE3FGHIRWY/LB1 |
Departure
| Time | 2026-05-07 19:07 |
|---|---|
| Airport | Leipzig/Halle Airport (EDDP) |
Arrival
| Time | 2026-05-07 19:58 |
|---|---|
| Airport | Brussels Airport (EBBR) |
| Time | Latitude | Longitude | Altitude | Speed | Heading |
|---|---|---|---|---|---|
| 2026-05-07 18:28 | 51.41902 | 12.22031 | 443 ft | 0 kts | 16° |
| 2026-05-07 18:56 | 51.41901 | 12.22031 | 443 ft | 1 kts | 16° |
| 2026-05-07 18:57 | 51.41877 | 12.22020 | 429 ft | 4 kts | 15° |
| 2026-05-07 18:57 | 51.41851 | 12.22010 | 434 ft | 4 kts | 6° |
| 2026-05-07 18:57 | 51.41825 | 12.22011 | 435 ft | 4 kts | 339° |
| 2026-05-07 18:57 | 51.41806 | 12.22032 | 446 ft | 4 kts | 291° |
| 2026-05-07 18:58 | 51.41804 | 12.22040 | 446 ft | 0 kts | 285° |
| 2026-05-07 18:59 | 51.41809 | 12.22013 | 437 ft | 5 kts | 285° |
| 2026-05-07 19:00 | 51.41818 | 12.21961 | 448 ft | 9 kts | 285° |
| 2026-05-07 19:00 | 51.41849 | 12.21784 | 442 ft | 15 kts | 285° |
| 2026-05-07 19:00 | 51.41879 | 12.21617 | 439 ft | 16 kts | 285° |
| 2026-05-07 19:00 | 51.41899 | 12.21498 | 426 ft | 17 kts | 285° |
| 2026-05-07 19:01 | 51.41932 | 12.21308 | 430 ft | 18 kts | 285° |
| 2026-05-07 19:01 | 51.41968 | 12.21101 | 420 ft | 20 kts | 287° |
| 2026-05-07 19:01 | 51.42021 | 12.20923 | 420 ft | 15 kts | 334° |
| 2026-05-07 19:01 | 51.42120 | 12.20951 | 424 ft | 16 kts | 14° |
| 2026-05-07 19:02 | 51.42232 | 12.20999 | 430 ft | 17 kts | 15° |
| 2026-05-07 19:02 | 51.42351 | 12.21051 | 439 ft | 18 kts | 15° |
| 2026-05-07 19:02 | 51.42463 | 12.21104 | 442 ft | 16 kts | 16° |
| 2026-05-07 19:02 | 51.42573 | 12.21151 | 442 ft | 16 kts | 15° |
| 2026-05-07 19:03 | 51.42688 | 12.21201 | 422 ft | 19 kts | 14° |
| 2026-05-07 19:03 | 51.42822 | 12.21257 | 421 ft | 20 kts | 14° |
| 2026-05-07 19:03 | 51.42937 | 12.21357 | 424 ft | 17 kts | 45° |
| 2026-05-07 19:03 | 51.43001 | 12.21462 | 430 ft | 10 kts | 46° |
| 2026-05-07 19:04 | 51.43003 | 12.21465 | 431 ft | 0 kts | 46° |
| 2026-05-07 19:05 | 51.43009 | 12.21476 | 431 ft | 7 kts | 46° |
| 2026-05-07 19:05 | 51.43082 | 12.21591 | 426 ft | 18 kts | 43° |
| 2026-05-07 19:05 | 51.43129 | 12.21689 | 434 ft | 8 kts | 79° |
| 2026-05-07 19:06 | 51.43130 | 12.21709 | 437 ft | 0 kts | 84° |
| 2026-05-07 19:06 | 51.43163 | 12.22385 | 429 ft | 93 kts | 86° |
| 2026-05-07 19:06 | 51.43225 | 12.23753 | 450 ft | 151 kts | 86° |
| 2026-05-07 19:07 | 51.43317 | 12.25630 | 784 ft | 171 kts | 84° |
| 2026-05-07 19:07 | 51.43403 | 12.27505 | 1638 ft | 166 kts | 84° |
| 2026-05-07 19:07 | 51.43793 | 12.29291 | 2034 ft | 181 kts | 54° |
| 2026-05-07 19:07 | 51.44751 | 12.30695 | 2386 ft | 195 kts | 30° |
| 2026-05-07 19:08 | 51.46061 | 12.31403 | 2749 ft | 209 kts | 8° |
| 2026-05-07 19:08 | 51.47541 | 12.31339 | 3271 ft | 216 kts | 351° |
| 2026-05-07 19:08 | 51.48943 | 12.30466 | 3937 ft | 218 kts | 330° |
| 2026-05-07 19:08 | 51.50260 | 12.29195 | 4521 ft | 222 kts | 330° |
| 2026-05-07 19:09 | 51.51596 | 12.27935 | 5144 ft | 224 kts | 331° |
| 2026-05-07 19:09 | 51.52957 | 12.26683 | 5750 ft | 226 kts | 332° |
| 2026-05-07 19:09 | 51.54327 | 12.25418 | 6371 ft | 228 kts | 331° |
| 2026-05-07 19:09 | 51.55694 | 12.24116 | 6935 ft | 230 kts | 330° |
| 2026-05-07 19:10 | 51.57076 | 12.22782 | 7501 ft | 232 kts | 330° |
| 2026-05-07 19:10 | 51.58461 | 12.21439 | 8069 ft | 233 kts | 330° |
| 2026-05-07 19:10 | 51.59860 | 12.20078 | 8645 ft | 235 kts | 330° |
| 2026-05-07 19:10 | 51.61270 | 12.18703 | 9175 ft | 239 kts | 330° |
| 2026-05-07 19:11 | 51.62734 | 12.17236 | 9363 ft | 258 kts | 329° |
| 2026-05-07 19:11 | 51.64323 | 12.15621 | 9560 ft | 279 kts | 329° |
| 2026-05-07 19:11 | 51.65984 | 12.13919 | 10107 ft | 286 kts | 329° |
| 2026-05-07 19:11 | 51.67700 | 12.12157 | 10407 ft | 303 kts | 329° |
| 2026-05-07 19:12 | 51.69366 | 12.09900 | 10532 ft | 325 kts | 310° |
| 2026-05-07 19:12 | 51.70446 | 12.06635 | 10660 ft | 347 kts | 287° |
| 2026-05-07 19:12 | 51.70665 | 12.02666 | 10790 ft | 366 kts | 267° |
| 2026-05-07 19:12 | 51.70473 | 11.98476 | 10912 ft | 383 kts | 266° |
| 2026-05-07 19:13 | 51.70246 | 11.94110 | 11055 ft | 397 kts | 266° |
| 2026-05-07 19:13 | 51.70006 | 11.89631 | 11438 ft | 403 kts | 266° |
| 2026-05-07 19:13 | 51.69766 | 11.85092 | 11929 ft | 406 kts | 266° |
| 2026-05-07 19:13 | 51.69530 | 11.80523 | 12444 ft | 409 kts | 266° |
| 2026-05-07 19:14 | 51.69297 | 11.75943 | 12946 ft | 411 kts | 266° |
| 2026-05-07 19:14 | 51.69061 | 11.71320 | 13457 ft | 414 kts | 266° |
| 2026-05-07 19:14 | 51.68828 | 11.66736 | 13954 ft | 416 kts | 266° |
| 2026-05-07 19:14 | 51.68591 | 11.62073 | 14400 ft | 418 kts | 266° |
| 2026-05-07 19:15 | 51.68350 | 11.57389 | 14850 ft | 420 kts | 266° |
| 2026-05-07 19:15 | 51.68105 | 11.52679 | 15304 ft | 422 kts | 266° |
| 2026-05-07 19:15 | 51.67856 | 11.47950 | 15751 ft | 424 kts | 265° |
| 2026-05-07 19:15 | 51.67368 | 11.43250 | 16190 ft | 427 kts | 256° |
| 2026-05-07 19:16 | 51.66600 | 11.38607 | 16649 ft | 428 kts | 256° |
| 2026-05-07 19:16 | 51.65821 | 11.33954 | 17103 ft | 430 kts | 255° |
| 2026-05-07 19:16 | 51.65036 | 11.29284 | 17552 ft | 432 kts | 255° |
| 2026-05-07 19:16 | 51.64245 | 11.24599 | 17992 ft | 434 kts | 255° |
| 2026-05-07 19:17 | 51.63451 | 11.19908 | 18417 ft | 435 kts | 255° |
| 2026-05-07 19:17 | 51.62651 | 11.15194 | 18778 ft | 437 kts | 255° |
| 2026-05-07 19:17 | 51.61845 | 11.10459 | 19138 ft | 439 kts | 255° |
| 2026-05-07 19:17 | 51.61045 | 11.05768 | 19510 ft | 440 kts | 255° |
| 2026-05-07 19:18 | 51.60229 | 11.00999 | 19897 ft | 442 kts | 255° |
| 2026-05-07 19:18 | 51.59412 | 10.96215 | 20268 ft | 444 kts | 255° |
| 2026-05-07 19:18 | 51.58593 | 10.91421 | 20635 ft | 446 kts | 255° |
| 2026-05-07 19:18 | 51.57765 | 10.86593 | 21002 ft | 448 kts | 255° |
| 2026-05-07 19:19 | 51.56933 | 10.81764 | 21364 ft | 450 kts | 255° |
| 2026-05-07 19:19 | 51.56090 | 10.76902 | 21732 ft | 451 kts | 255° |
| 2026-05-07 19:19 | 51.55239 | 10.72018 | 22084 ft | 453 kts | 255° |
| 2026-05-07 19:19 | 51.54570 | 10.67057 | 22403 ft | 455 kts | 262° |
| 2026-05-07 19:20 | 51.54374 | 10.61983 | 22714 ft | 456 kts | 271° |
| 2026-05-07 19:20 | 51.54673 | 10.56894 | 23018 ft | 458 kts | 280° |
| 2026-05-07 19:20 | 51.55350 | 10.51890 | 23296 ft | 460 kts | 282° |
| 2026-05-07 19:20 | 51.56054 | 10.46851 | 23567 ft | 461 kts | 282° |
| 2026-05-07 19:21 | 51.56751 | 10.41818 | 23802 ft | 463 kts | 282° |
| 2026-05-07 19:21 | 51.57433 | 10.36814 | 24012 ft | 464 kts | 282° |
| 2026-05-07 19:21 | 51.58119 | 10.31741 | 24268 ft | 464 kts | 282° |
| 2026-05-07 19:21 | 51.58800 | 10.26668 | 24566 ft | 463 kts | 282° |
| 2026-05-07 19:22 | 51.59479 | 10.21596 | 24863 ft | 462 kts | 282° |
| 2026-05-07 19:22 | 51.60072 | 10.16515 | 25148 ft | 461 kts | 275° |
| 2026-05-07 19:22 | 51.59979 | 10.11364 | 25406 ft | 461 kts | 261° |
| 2026-05-07 19:22 | 51.59331 | 10.06301 | 25679 ft | 461 kts | 258° |
| 2026-05-07 19:23 | 51.58652 | 10.01281 | 25973 ft | 461 kts | 258° |
| 2026-05-07 19:23 | 51.57957 | 9.96225 | 26273 ft | 460 kts | 258° |
| 2026-05-07 19:23 | 51.57261 | 9.91200 | 26576 ft | 460 kts | 258° |
| 2026-05-07 19:23 | 51.56572 | 9.86250 | 26882 ft | 459 kts | 258° |
| 2026-05-07 19:24 | 51.55867 | 9.81185 | 27197 ft | 458 kts | 258° |
| 2026-05-07 19:24 | 51.55178 | 9.76241 | 27501 ft | 458 kts | 258° |
| 2026-05-07 19:24 | 51.54481 | 9.71239 | 27803 ft | 457 kts | 258° |
| 2026-05-07 19:24 | 51.53786 | 9.66253 | 28099 ft | 457 kts | 258° |
| 2026-05-07 19:25 | 51.53090 | 9.61275 | 28437 ft | 456 kts | 258° |
| 2026-05-07 19:25 | 51.52396 | 9.56308 | 28752 ft | 455 kts | 258° |
| 2026-05-07 19:25 | 51.51716 | 9.51333 | 29067 ft | 455 kts | 258° |
| 2026-05-07 19:25 | 51.51059 | 9.46366 | 29383 ft | 454 kts | 258° |
| 2026-05-07 19:26 | 51.50413 | 9.41388 | 29700 ft | 454 kts | 259° |
| 2026-05-07 19:26 | 51.49772 | 9.36427 | 30011 ft | 453 kts | 259° |
| 2026-05-07 19:26 | 51.48476 | 9.26586 | 30109 ft | 453 kts | 258° |
| 2026-05-07 19:27 | 51.47149 | 9.16698 | 30112 ft | 452 kts | 258° |
| 2026-05-07 19:27 | 51.46482 | 9.11765 | 30232 ft | 453 kts | 258° |
| 2026-05-07 19:27 | 51.45811 | 9.06827 | 30515 ft | 452 kts | 258° |
| 2026-05-07 19:28 | 51.45141 | 9.01897 | 30785 ft | 451 kts | 258° |
| 2026-05-07 19:28 | 51.44469 | 8.96985 | 31043 ft | 451 kts | 258° |
| 2026-05-07 19:28 | 51.43796 | 8.92071 | 31301 ft | 450 kts | 258° |
| 2026-05-07 19:28 | 51.43121 | 8.87163 | 31561 ft | 449 kts | 258° |
| 2026-05-07 19:29 | 51.42449 | 8.82274 | 31813 ft | 449 kts | 258° |
| 2026-05-07 19:29 | 51.41779 | 8.77389 | 32037 ft | 449 kts | 258° |
| 2026-05-07 19:29 | 51.40431 | 8.67630 | 32112 ft | 448 kts | 258° |
| 2026-05-07 19:30 | 51.39062 | 8.57894 | 31857 ft | 453 kts | 257° |
| 2026-05-07 19:30 | 51.38367 | 8.52967 | 31649 ft | 453 kts | 258° |
| 2026-05-07 19:30 | 51.37674 | 8.48043 | 31442 ft | 454 kts | 257° |
| 2026-05-07 19:31 | 51.36976 | 8.43104 | 31237 ft | 454 kts | 257° |
| 2026-05-07 19:31 | 51.36277 | 8.38173 | 31035 ft | 454 kts | 257° |
| 2026-05-07 19:31 | 51.35575 | 8.33235 | 30834 ft | 454 kts | 257° |
| 2026-05-07 19:31 | 51.34872 | 8.28312 | 30635 ft | 454 kts | 257° |
| 2026-05-07 19:32 | 51.34164 | 8.23376 | 30428 ft | 455 kts | 257° |
| 2026-05-07 19:32 | 51.33691 | 8.20100 | 30301 ft | 455 kts | 257° |
| 2026-05-07 19:32 | 51.32977 | 8.15170 | 30095 ft | 455 kts | 257° |
| 2026-05-07 19:32 | 51.32263 | 8.10243 | 29861 ft | 455 kts | 257° |
| 2026-05-07 19:33 | 51.31552 | 8.05305 | 29627 ft | 455 kts | 257° |
| 2026-05-07 19:33 | 51.30840 | 8.00367 | 29396 ft | 455 kts | 257° |
| 2026-05-07 19:33 | 51.30126 | 7.95432 | 29173 ft | 456 kts | 257° |
| 2026-05-07 19:33 | 51.29404 | 7.90497 | 28943 ft | 456 kts | 257° |
| 2026-05-07 19:34 | 51.28675 | 7.85554 | 28724 ft | 456 kts | 257° |
| 2026-05-07 19:34 | 51.27944 | 7.80621 | 28501 ft | 457 kts | 257° |
| 2026-05-07 19:34 | 51.27214 | 7.75678 | 28281 ft | 457 kts | 257° |
| 2026-05-07 19:34 | 51.26484 | 7.70739 | 28058 ft | 457 kts | 257° |
| 2026-05-07 19:35 | 51.25748 | 7.65795 | 27856 ft | 458 kts | 257° |
| 2026-05-07 19:35 | 51.25006 | 7.60837 | 27630 ft | 458 kts | 257° |
| 2026-05-07 19:35 | 51.24271 | 7.55943 | 27419 ft | 458 kts | 256° |
| 2026-05-07 19:35 | 51.23529 | 7.50987 | 27204 ft | 459 kts | 256° |
| 2026-05-07 19:36 | 51.22784 | 7.46021 | 26991 ft | 459 kts | 256° |
| 2026-05-07 19:36 | 51.22036 | 7.41058 | 26784 ft | 460 kts | 256° |
| 2026-05-07 19:36 | 51.21283 | 7.36093 | 26569 ft | 460 kts | 256° |
| 2026-05-07 19:36 | 51.20523 | 7.31117 | 26370 ft | 461 kts | 256° |
| 2026-05-07 19:37 | 51.19762 | 7.26172 | 26151 ft | 461 kts | 256° |
| 2026-05-07 19:37 | 51.19007 | 7.21186 | 25956 ft | 462 kts | 257° |
| 2026-05-07 19:37 | 51.18283 | 7.16186 | 25754 ft | 462 kts | 257° |
| 2026-05-07 19:37 | 51.17582 | 7.11185 | 25551 ft | 462 kts | 257° |
| 2026-05-07 19:38 | 51.16890 | 7.06176 | 25352 ft | 463 kts | 257° |
| 2026-05-07 19:38 | 51.16195 | 7.01161 | 25147 ft | 463 kts | 257° |
| 2026-05-07 19:38 | 51.15489 | 6.96138 | 24957 ft | 464 kts | 257° |
| 2026-05-07 19:38 | 51.14782 | 6.91174 | 24768 ft | 464 kts | 257° |
| 2026-05-07 19:39 | 51.14059 | 6.86168 | 24571 ft | 464 kts | 257° |
| 2026-05-07 19:39 | 51.13330 | 6.81159 | 24378 ft | 462 kts | 257° |
| 2026-05-07 19:39 | 51.12601 | 6.76165 | 24151 ft | 461 kts | 257° |
| 2026-05-07 19:39 | 51.11877 | 6.71221 | 23923 ft | 460 kts | 257° |
| 2026-05-07 19:40 | 51.11141 | 6.66210 | 23684 ft | 459 kts | 257° |
| 2026-05-07 19:40 | 51.10422 | 6.61329 | 23414 ft | 457 kts | 257° |
| 2026-05-07 19:40 | 51.09695 | 6.56411 | 23134 ft | 456 kts | 257° |
| 2026-05-07 19:40 | 51.08970 | 6.51505 | 22862 ft | 454 kts | 257° |
| 2026-05-07 19:41 | 51.08246 | 6.46613 | 22584 ft | 452 kts | 257° |
| 2026-05-07 19:41 | 51.07528 | 6.41750 | 22308 ft | 451 kts | 257° |
| 2026-05-07 19:41 | 51.06812 | 6.36901 | 22043 ft | 449 kts | 257° |
| 2026-05-07 19:41 | 51.06096 | 6.32072 | 21777 ft | 448 kts | 257° |
| 2026-05-07 19:42 | 51.05376 | 6.27258 | 21492 ft | 445 kts | 256° |
| 2026-05-07 19:42 | 51.04659 | 6.22505 | 20911 ft | 436 kts | 256° |
| 2026-05-07 19:42 | 51.03967 | 6.17925 | 20770 ft | 416 kts | 256° |
| 2026-05-07 19:42 | 51.03304 | 6.13541 | 20628 ft | 398 kts | 256° |
| 2026-05-07 19:43 | 51.02666 | 6.09320 | 20222 ft | 389 kts | 256° |
| 2026-05-07 19:43 | 51.02034 | 6.05154 | 19684 ft | 385 kts | 256° |
| 2026-05-07 19:43 | 51.01406 | 6.01045 | 19109 ft | 381 kts | 256° |
| 2026-05-07 19:43 | 51.00787 | 5.97014 | 18554 ft | 379 kts | 256° |
| 2026-05-07 19:44 | 51.00166 | 5.92960 | 17938 ft | 376 kts | 256° |
| 2026-05-07 19:44 | 50.99549 | 5.88941 | 17396 ft | 368 kts | 256° |
| 2026-05-07 19:44 | 50.98958 | 5.85088 | 16889 ft | 352 kts | 256° |
| 2026-05-07 19:44 | 50.98382 | 5.81344 | 16476 ft | 346 kts | 256° |
| 2026-05-07 19:45 | 50.97811 | 5.77662 | 15998 ft | 342 kts | 256° |
| 2026-05-07 19:45 | 50.97242 | 5.74007 | 15490 ft | 339 kts | 256° |
| 2026-05-07 19:45 | 50.96678 | 5.70390 | 14919 ft | 334 kts | 256° |
| 2026-05-07 19:45 | 50.96120 | 5.66821 | 14199 ft | 331 kts | 256° |
| 2026-05-07 19:46 | 50.95568 | 5.63281 | 13447 ft | 328 kts | 256° |
| 2026-05-07 19:46 | 50.95029 | 5.59821 | 12670 ft | 325 kts | 256° |
| 2026-05-07 19:46 | 50.94485 | 5.56357 | 11926 ft | 322 kts | 256° |
| 2026-05-07 19:46 | 50.93944 | 5.52928 | 11184 ft | 320 kts | 256° |
| 2026-05-07 19:47 | 50.93402 | 5.49512 | 10464 ft | 317 kts | 256° |
| 2026-05-07 19:47 | 50.92865 | 5.46125 | 9936 ft | 315 kts | 256° |
| 2026-05-07 19:47 | 50.92356 | 5.42884 | 9788 ft | 290 kts | 256° |
| 2026-05-07 19:47 | 50.91866 | 5.39775 | 9490 ft | 290 kts | 256° |
| 2026-05-07 19:48 | 50.91380 | 5.36699 | 9130 ft | 285 kts | 256° |
| 2026-05-07 19:48 | 50.90895 | 5.33642 | 8666 ft | 285 kts | 256° |
| 2026-05-07 19:48 | 50.90412 | 5.30606 | 8251 ft | 284 kts | 256° |
| 2026-05-07 19:48 | 50.89928 | 5.27589 | 7890 ft | 281 kts | 255° |
| 2026-05-07 19:49 | 50.89465 | 5.24576 | 7529 ft | 278 kts | 261° |
| 2026-05-07 19:49 | 50.89579 | 5.21570 | 7277 ft | 275 kts | 284° |
| 2026-05-07 19:49 | 50.90122 | 5.18666 | 7032 ft | 274 kts | 287° |
| 2026-05-07 19:49 | 50.90711 | 5.15799 | 6784 ft | 273 kts | 288° |
| 2026-05-07 19:50 | 50.91302 | 5.12947 | 6530 ft | 272 kts | 288° |
| 2026-05-07 19:50 | 50.91886 | 5.10127 | 6273 ft | 272 kts | 288° |
| 2026-05-07 19:50 | 50.92474 | 5.07278 | 6014 ft | 271 kts | 288° |
| 2026-05-07 19:50 | 50.93058 | 5.04436 | 5759 ft | 270 kts | 288° |
| 2026-05-07 19:51 | 50.93550 | 5.01601 | 5499 ft | 264 kts | 283° |
| 2026-05-07 19:51 | 50.93965 | 4.98793 | 5238 ft | 259 kts | 283° |
| 2026-05-07 19:51 | 50.94362 | 4.96038 | 4975 ft | 250 kts | 283° |
| 2026-05-07 19:51 | 50.94731 | 4.93453 | 4731 ft | 230 kts | 283° |
| 2026-05-07 19:52 | 50.95077 | 4.91027 | 4478 ft | 219 kts | 283° |
| 2026-05-07 19:52 | 50.95402 | 4.88735 | 4237 ft | 207 kts | 283° |
| 2026-05-07 19:52 | 50.95710 | 4.86556 | 3974 ft | 198 kts | 283° |
| 2026-05-07 19:52 | 50.96004 | 4.84470 | 3753 ft | 194 kts | 283° |
| 2026-05-07 19:53 | 50.96298 | 4.82361 | 3603 ft | 193 kts | 281° |
| 2026-05-07 19:53 | 50.96270 | 4.80244 | 3449 ft | 193 kts | 254° |
| 2026-05-07 19:53 | 50.95839 | 4.78296 | 3290 ft | 184 kts | 249° |
| 2026-05-07 19:53 | 50.95413 | 4.76428 | 3134 ft | 176 kts | 249° |
| 2026-05-07 19:54 | 50.95004 | 4.74637 | 3081 ft | 167 kts | 250° |
| 2026-05-07 19:54 | 50.94613 | 4.72921 | 2900 ft | 163 kts | 249° |
| 2026-05-07 19:54 | 50.94229 | 4.71242 | 2695 ft | 161 kts | 250° |
| 2026-05-07 19:54 | 50.93847 | 4.69570 | 2489 ft | 160 kts | 250° |
| 2026-05-07 19:55 | 50.93470 | 4.67921 | 2272 ft | 159 kts | 250° |
| 2026-05-07 19:55 | 50.93095 | 4.66280 | 2059 ft | 158 kts | 250° |
| 2026-05-07 19:55 | 50.92719 | 4.64639 | 1845 ft | 158 kts | 250° |
| 2026-05-07 19:55 | 50.92345 | 4.63006 | 1630 ft | 158 kts | 250° |
| 2026-05-07 19:56 | 50.91975 | 4.61394 | 1412 ft | 157 kts | 250° |
| 2026-05-07 19:56 | 50.91602 | 4.59768 | 1201 ft | 156 kts | 250° |
| 2026-05-07 19:56 | 50.91227 | 4.58147 | 1001 ft | 157 kts | 250° |
| 2026-05-07 19:56 | 50.90845 | 4.56519 | 802 ft | 158 kts | 250° |
| 2026-05-07 19:57 | 50.90470 | 4.54857 | 544 ft | 161 kts | 250° |
| 2026-05-07 19:57 | 50.90098 | 4.53200 | 323 ft | 158 kts | 251° |
| 2026-05-07 19:57 | 50.89727 | 4.51594 | 162 ft | 147 kts | 250° |
| 2026-05-07 19:57 | 50.89434 | 4.50306 | 170 ft | 99 kts | 249° |
| 2026-05-07 19:58 | 50.89254 | 4.49541 | 170 ft | 41 kts | 249° |
| 2026-05-07 19:58 | 50.89250 | 4.49275 | 168 ft | 18 kts | 295° |
| 2026-05-07 19:58 | 50.89318 | 4.49134 | 165 ft | 9 kts | 316° |
| 2026-05-07 19:58 | 50.89382 | 4.49111 | 163 ft | 11 kts | 13° |
| 2026-05-07 19:59 | 50.89451 | 4.49138 | 164 ft | 3 kts | 15° |
| 2026-05-07 19:59 | 50.89473 | 4.49147 | 164 ft | 3 kts | 15° |
| 2026-05-07 19:59 | 50.89496 | 4.49158 | 164 ft | 4 kts | 15° |
| 2026-05-07 19:59 | 50.89524 | 4.49170 | 164 ft | 5 kts | 16° |
| 2026-05-07 20:00 | 50.89535 | 4.49175 | 164 ft | 0 kts | 16° |
| 2026-05-07 20:00 | 50.89546 | 4.49180 | 164 ft | 4 kts | 16° |
| 2026-05-07 20:00 | 50.89593 | 4.49181 | 163 ft | 10 kts | 340° |
| 2026-05-07 20:00 | 50.89671 | 4.49154 | 160 ft | 13 kts | 19° |
| 2026-05-07 20:01 | 50.89764 | 4.49194 | 160 ft | 14 kts | 14° |
| 2026-05-07 20:01 | 50.89864 | 4.49237 | 159 ft | 15 kts | 15° |
| 2026-05-07 20:01 | 50.89971 | 4.49281 | 154 ft | 16 kts | 15° |
| 2026-05-07 20:01 | 50.90079 | 4.49331 | 150 ft | 12 kts | 15° |
| 2026-05-07 20:02 | 50.90168 | 4.49369 | 144 ft | 14 kts | 15° |
| 2026-05-07 20:02 | 50.90216 | 4.49385 | 142 ft | 6 kts | 11° |
| 2026-05-07 20:02 | 50.90257 | 4.49398 | 141 ft | 6 kts | 11° |
| 2026-05-07 20:02 | 50.90300 | 4.49411 | 140 ft | 6 kts | 9° |
| 2026-05-07 20:03 | 50.90328 | 4.49371 | 138 ft | 6 kts | 293° |
| 2026-05-07 20:03 | 50.90323 | 4.49311 | 137 ft | 5 kts | 249° |
| 2026-05-07 20:03 | 50.90311 | 4.49267 | 138 ft | 4 kts | 247° |
| 2026-05-07 20:03 | 50.90300 | 4.49226 | 138 ft | 5 kts | 245° |
| 2026-05-07 20:04 | 50.90285 | 4.49176 | 139 ft | 5 kts | 245° |
| 2026-05-07 20:04 | 50.90275 | 4.49143 | 139 ft | 5 kts | 245° |
| 2026-05-07 20:04 | 50.90256 | 4.49077 | 140 ft | 9 kts | 245° |
| 2026-05-07 20:04 | 50.90220 | 4.48950 | 141 ft | 16 kts | 246° |
| 2026-05-07 20:05 | 50.90162 | 4.48756 | 141 ft | 21 kts | 244° |
| 2026-05-07 20:05 | 50.90187 | 4.48598 | 135 ft | 13 kts | 304° |
| 2026-05-07 20:05 | 50.90239 | 4.48537 | 127 ft | 8 kts | 337° |
| 2026-05-07 20:05 | 50.90258 | 4.48524 | 129 ft | 0 kts | 336° |
| 2026-05-07 20:06 | 50.90260 | 4.48522 | 129 ft | 0 kts | 337° |